Oxbow, North Dakota
Current Conditions -  °F | °C
As of 12:32 AM on Monday 26 Jan 2015 (Local Time) from KJKJ Reporting Station
Scattered Clouds Scattered Clouds  
Wind Chill: 15°   Ceiling: Unl
Heat Index: 28°   Visibility: 10mi
Dew Point: 27°   Wind: 21mph
Humidity: 93%   Direction: 180°S
Pressure: 29.7"   Gusts: 29mph
Location:  46.7039°N, 96.8572°W
Report Text: KJKJ 260632Z AUTO 18018G25KT 10SM SCT110 M02/M03 A2970 RMK AO2
Loading
Personal Weather Stations






























Interactive Weather Map New forecast layout! Learn more

10-Day Weather Forecast

Advertisements
Track Severe Weather on mobile